Station: EBLB - 15/10/2018 15:55Z (il y a 16 minutes)
EBLB 151555Z AUTO VRB01KT 9999 NCD 20/06 Q1015 BLU
Vent de direction variable: 1 kt
Visibilité > 10 km
Pas de nuages détectés
Température: +20ºC - Point de rosée: +06ºC - QNH: 1015 hPa
Code couleur militaire: BLU (conditions VMC)